Terminal Aerodrome Forecast
Issued by NWS Wilmington, OH

Current Version | Previous Version | Text Only | Print | Product List | Glossary Off
Versions: 1 2 3 4 5 6 7 8 9 10 11 12 13 14 15

000
FTUS41 KILN 222339
TAFDAY
TAF
KDAY 222339Z 2300/2324 07007KT P6SM SCT250
     FM231500 12010KT P6SM SCT150
     FM232200 15010KT P6SM VCSH BKN080=

USA.gov is the U.S. government's official web portal to all federal, state and local government web resources and services.